Terminal Aerodrome Forecast
Issued by NWS Wilmington, OH

Current Version | Previous Version | Graphics & Text | Print | Product List | Glossary On
Versions: 1 2 3 4 5 6 7 8 9 10 11 12 13 14 15
000
FTUS41 KILN 210542
TAFILN
TAF
KILN 210542Z 2106/2206 VRB03KT 2SM BR OVC004
      TEMPO 2106/2110 1/2SM FG OVC002
     FM211000 36007KT 1SM BR OVC005
     FM211400 02008KT 3SM BR OVC010
     FM211600 02007KT P6SM BKN020
     FM211800 36005KT P6SM BKN200
     FM220000 34010KT P6SM BKN100=

USA.gov is the U.S. government's official web portal to all federal, state and local government web resources and services.